CheckWX is a tool to help pilots better visualize weather data.  It is not intended as a substitute for an official pre-flight weather briefing.

06:49:44 UTC

WBGG TAF
Kuching International Airport
Kuching, Malaysia
TAF WBGG 170500Z 1706/1806 VRB03KT 9999 FEW016 TEMPO 1708/1712 5000 SHRA FEW015CB

Jun-17@
06:00 UTC

Jun-17 @ 06:00 UTC

Jun-18@
06:00 UTC

Jun-18 @ 06:00 UTC

TAF WBGG 170500Z 1706/1806 VRB03KT 9999 FEW016
Wind
  • Variable at 3 KTS
Cloud Levels
  • Few at 1,600' AGL

Jun-17@
08:00 UTC

Jun-17 @ 08:00 UTC

Jun-17@
12:00 UTC

Jun-17 @ 12:00 UTC

TEMPO 1708/1712 5000 SHRA FEW015CB

Temporary

Temporary Changes expected for less than half the time period

Conditions
Rain
Cloud Levels
  • Few at 1,500' AGL